createdAt,value
2022-09-28T00:01:17.586Z,16.20
2022-09-28T00:03:46.124Z,13.43
2022-09-28T00:06:16.029Z,16.20
2022-09-28T00:08:43.660Z,10.63
2022-09-28T00:11:15.356Z,13.48
2022-09-28T00:13:43.873Z,18.63
2022-09-28T00:16:17.282Z,14.07
2022-09-28T00:18:45.641Z,13.10
2022-09-28T00:21:29.071Z,8.90
2022-09-28T00:24:17.859Z,9.93
2022-09-28T00:26:46.974Z,9.23
2022-09-28T00:29:19.145Z,15.88
2022-09-28T00:31:46.961Z,15.07
2022-09-28T00:34:15.774Z,12.40
2022-09-28T00:36:45.752Z,11.98
2022-09-28T00:39:15.441Z,8.82
2022-09-28T00:41:46.219Z,8.83
2022-09-28T00:47:12.746Z,9.10
2022-09-28T00:50:14.823Z,13.13
2022-09-28T00:52:46.013Z,12.20
2022-09-28T00:55:18.184Z,10.88
2022-09-28T00:57:56.722Z,14.82
2022-09-28T01:00:24.755Z,15.13
2022-09-28T01:02:52.854Z,16.33
2022-09-28T01:05:22.326Z,18.13
2022-09-28T01:07:50.650Z,11.90
2022-09-28T01:10:18.453Z,12.63
2022-09-28T01:12:46.223Z,18.50
2022-09-28T01:15:15.634Z,14.07
2022-09-28T01:18:03.120Z,18.38
2022-09-28T01:20:57.310Z,11.57
2022-09-28T01:23:54.013Z,18.13
2022-09-28T01:26:45.732Z,14.85
2022-09-28T01:29:24.434Z,13.02
2022-09-28T01:32:13.700Z,14.27
2022-09-28T01:34:53.117Z,10.90
2022-09-28T01:37:26.376Z,12.65
2022-09-28T01:39:57.102Z,15.88
2022-09-28T01:42:28.481Z,13.75
2022-09-28T01:45:03.890Z,16.90
2022-09-28T01:47:36.253Z,12.77
2022-09-28T01:50:25.512Z,12.65
2022-09-28T01:53:01.088Z,16.15
2022-09-28T01:55:34.128Z,11.75
2022-09-28T01:58:15.038Z,9.05
2022-09-28T02:00:46.841Z,9.63
2022-09-28T02:03:23.400Z,11.75
2022-09-28T02:06:26.062Z,11.45
2022-09-28T02:08:59.278Z,12.10
2022-09-28T02:11:41.568Z,9.98
2022-09-28T02:14:12.913Z,14.20
2022-09-28T02:16:47.156Z,12.38
2022-09-28T02:19:17.894Z,11.77
2022-09-28T02:22:00.375Z,12.95
2022-09-28T02:24:34.336Z,16.23
2022-09-28T02:27:09.369Z,12.25
2022-09-28T02:29:37.160Z,11.18
2022-09-28T02:32:05.073Z,11.95
2022-09-28T02:34:33.462Z,14.30
2022-09-28T02:37:01.980Z,10.35
2022-09-28T02:39:30.113Z,12.80
2022-09-28T02:42:29.342Z,12.07
2022-09-28T02:45:21.938Z,10.45
2022-09-28T02:48:14.378Z,12.32
2022-09-28T02:50:51.563Z,12.93
2022-09-28T02:53:42.414Z,10.65
2022-09-28T02:56:22.140Z,16.85
2022-09-28T02:59:21.493Z,22.50
2022-09-28T03:02:03.837Z,9.00
2022-09-28T03:05:22.114Z,10.73
2022-09-28T03:07:57.290Z,18.02
2022-09-28T03:10:46.414Z,11.10
2022-09-28T03:13:14.581Z,9.57
2022-09-28T03:15:46.429Z,14.23
2022-09-28T03:18:16.826Z,10.85
2022-09-28T03:20:45.012Z,16.05
2022-09-28T03:23:24.245Z,8.95
2022-09-28T03:25:53.357Z,9.20
2022-09-28T03:28:21.550Z,11.77
2022-09-28T03:30:50.274Z,19.98
2022-09-28T03:33:19.781Z,13.82
2022-09-28T03:35:48.753Z,8.38
2022-09-28T03:38:18.395Z,8.02
2022-09-28T03:40:54.742Z,11.13
2022-09-28T03:43:23.081Z,12.95
2022-09-28T03:45:57.428Z,9.48
2022-09-28T03:48:32.595Z,9.52
2022-09-28T03:51:03.218Z,11.13
2022-09-28T03:53:33.969Z,14.43
2022-09-28T03:56:04.552Z,12.25
2022-09-28T03:58:33.497Z,10.70
2022-09-28T04:01:04.385Z,8.00
2022-09-28T04:03:32.431Z,14.55
2022-09-28T04:06:00.602Z,15.88
2022-09-28T04:08:28.634Z,10.85
2022-09-28T04:11:00.702Z,11.40
2022-09-28T04:13:29.448Z,12.98
2022-09-28T04:16:01.257Z,8.98
2022-09-28T04:18:33.469Z,9.20
2022-09-28T04:21:13.136Z,10.50
2022-09-28T04:23:44.881Z,12.40
2022-09-28T04:26:16.764Z,16.30
2022-09-28T04:29:06.516Z,10.98
2022-09-28T04:31:43.407Z,15.55
2022-09-28T04:34:20.726Z,10.50
2022-09-28T04:36:49.044Z,11.93
2022-09-28T04:39:19.474Z,9.00
2022-09-28T04:41:53.727Z,16.75
2022-09-28T04:44:21.649Z,16.92
2022-09-28T04:46:52.193Z,15.10
2022-09-28T04:49:31.872Z,12.82
2022-09-28T04:52:06.425Z,11.10
2022-09-28T04:54:35.778Z,22.13
2022-09-28T04:57:06.076Z,13.18
2022-09-28T04:59:34.172Z,11.85
2022-09-28T05:02:02.150Z,14.35
2022-09-28T05:04:48.748Z,11.75
2022-09-28T05:07:34.520Z,15.80
2022-09-28T05:10:05.267Z,15.17
2022-09-28T05:12:33.791Z,15.27
2022-09-28T05:15:01.690Z,15.38
2022-09-28T05:17:29.618Z,12.55
2022-09-28T05:20:15.572Z,20.77
2022-09-28T05:22:43.337Z,17.05
2022-09-28T05:25:11.065Z,19.02
2022-09-28T05:27:57.098Z,16.10
2022-09-28T05:30:43.130Z,7.25
2022-09-28T05:33:31.018Z,11.73
2022-09-28T05:36:11.924Z,13.00
2022-09-28T05:38:40.032Z,13.73
2022-09-28T05:41:07.661Z,14.75
2022-09-28T05:43:36.330Z,10.27
2022-09-28T05:46:06.281Z,8.35
2022-09-28T05:48:36.791Z,15.88
2022-09-28T05:51:04.602Z,11.45
2022-09-28T05:53:32.233Z,11.55
2022-09-28T05:56:00.461Z,11.52
2022-09-28T05:58:29.230Z,18.67
2022-09-28T06:00:59.458Z,12.68
2022-09-28T06:03:27.198Z,11.52
2022-09-28T06:06:01.213Z,21.60
2022-09-28T06:08:32.755Z,18.13
2022-09-28T06:11:31.598Z,20.60
2022-09-28T06:14:02.109Z,17.30
2022-09-28T06:16:31.654Z,13.52
2022-09-28T06:18:59.378Z,14.57
2022-09-28T06:21:44.300Z,16.23
2022-09-28T06:24:12.193Z,14.30
2022-09-28T06:26:40.560Z,24.17
2022-09-28T06:29:08.879Z,12.48
2022-09-28T06:31:36.616Z,16.00
2022-09-28T06:34:04.212Z,19.30
2022-09-28T06:36:31.829Z,18.80
2022-09-28T06:38:59.764Z,23.02
2022-09-28T06:41:27.796Z,12.85
2022-09-28T06:44:02.090Z,15.27
2022-09-28T06:46:48.220Z,18.40
2022-09-28T06:49:22.274Z,13.75
2022-09-28T06:52:08.425Z,15.75
2022-09-28T06:54:56.048Z,16.13
2022-09-28T06:57:44.125Z,12.25
2022-09-28T07:00:15.047Z,11.43
2022-09-28T07:02:45.689Z,17.08
2022-09-28T07:05:44.500Z,14.77
2022-09-28T07:08:38.631Z,13.50
2022-09-28T07:11:27.003Z,20.88
2022-09-28T07:14:17.816Z,8.20
2022-09-28T07:17:10.736Z,15.95
2022-09-28T07:19:38.096Z,19.48
2022-09-28T07:22:05.815Z,12.82
2022-09-28T07:24:34.142Z,9.50
2022-09-28T07:27:28.158Z,12.18
2022-09-28T07:30:14.708Z,13.32
2022-09-28T07:33:02.027Z,12.13
2022-09-28T07:35:39.311Z,11.80
2022-09-28T07:38:08.438Z,14.55
2022-09-28T07:40:55.313Z,12.63
2022-09-28T07:43:23.382Z,12.40
2022-09-28T07:45:57.032Z,16.47
2022-09-28T07:48:25.222Z,10.55
2022-09-28T07:51:19.853Z,14.85
2022-09-28T07:54:06.604Z,14.75
2022-09-28T07:56:44.488Z,8.00
2022-09-28T07:59:27.382Z,10.07
2022-09-28T08:02:14.095Z,10.65
2022-09-28T08:04:42.853Z,11.57
2022-09-28T08:07:11.252Z,12.60
2022-09-28T08:09:39.752Z,12.25
2022-09-28T08:12:25.953Z,12.13
2022-09-28T08:15:19.969Z,10.00
2022-09-28T08:17:53.120Z,11.23
2022-09-28T08:20:52.163Z,12.80
2022-09-28T08:23:20.439Z,15.40
2022-09-28T08:25:49.252Z,15.70
2022-09-28T08:28:17.747Z,13.82
2022-09-28T08:30:48.494Z,11.25
2022-09-28T08:33:35.334Z,11.35
2022-09-28T08:36:35.000Z,10.13
2022-09-28T08:39:02.616Z,10.95
2022-09-28T08:41:39.179Z,12.88
2022-09-28T08:44:38.190Z,11.65
2022-09-28T08:47:50.225Z,8.80
2022-09-28T08:50:30.090Z,9.32
2022-09-28T08:53:27.913Z,11.77
2022-09-28T08:56:58.688Z,8.05
2022-09-28T08:59:37.365Z,10.20
2022-09-28T09:02:34.138Z,13.80
2022-09-28T09:05:22.789Z,11.93
2022-09-28T09:08:25.651Z,9.50
2022-09-28T09:11:10.643Z,18.50
2022-09-28T09:13:47.764Z,12.40
2022-09-28T09:16:32.575Z,11.65
2022-09-28T09:19:40.142Z,11.10
2022-09-28T09:22:31.826Z,12.70
2022-09-28T09:25:25.534Z,9.70
2022-09-28T09:28:09.498Z,15.82
2022-09-28T09:31:06.793Z,15.20
2022-09-28T09:33:53.638Z,12.43
2022-09-28T09:37:10.225Z,18.88
2022-09-28T09:40:22.017Z,9.52
2022-09-28T09:43:42.305Z,12.43
2022-09-28T09:47:04.717Z,12.57
2022-09-28T09:50:08.359Z,9.23
2022-09-28T09:52:55.985Z,11.40
2022-09-28T09:55:41.901Z,15.52
2022-09-28T09:58:37.010Z,14.90
2022-09-28T10:01:20.026Z,8.93
2022-09-28T10:04:15.804Z,8.13
2022-09-28T10:06:44.333Z,8.30
2022-09-28T10:09:19.369Z,7.18
2022-09-28T10:11:52.245Z,8.35
2022-09-28T10:14:25.537Z,8.85
2022-09-28T10:17:03.911Z,5.55
2022-09-28T10:20:04.500Z,6.40
2022-09-28T10:22:56.244Z,7.95
2022-09-28T10:25:24.384Z,9.65
2022-09-28T10:27:57.773Z,7.90
2022-09-28T10:30:26.049Z,5.97
2022-09-28T10:32:59.381Z,9.23
2022-09-28T10:35:42.156Z,6.75
2022-09-28T10:38:19.129Z,3.50
2022-09-28T10:40:55.793Z,7.03
2022-09-28T10:43:52.928Z,7.18
2022-09-28T10:46:24.471Z,3.83
2022-09-28T10:49:01.899Z,4.10
2022-09-28T10:51:40.807Z,1.88
2022-09-28T10:54:30.555Z,4.72
2022-09-28T10:57:00.649Z,5.47
2022-09-28T10:59:41.948Z,4.25
2022-09-28T11:02:36.236Z,3.40
2022-09-28T11:05:20.168Z,5.03
2022-09-28T11:07:48.616Z,4.03
2022-09-28T11:10:26.136Z,5.28
2022-09-28T11:12:58.307Z,4.50
2022-09-28T11:15:30.809Z,3.55
2022-09-28T11:18:31.421Z,5.38
2022-09-28T11:21:15.301Z,1.60
2022-09-28T11:24:01.451Z,6.88
2022-09-28T11:26:37.747Z,5.60
2022-09-28T11:29:22.310Z,4.10
2022-09-28T11:32:04.556Z,3.67
2022-09-28T11:34:59.586Z,1.65
2022-09-28T11:37:42.536Z,1.30
2022-09-28T11:40:29.589Z,6.43
2022-09-28T11:43:26.988Z,6.47
2022-09-28T11:46:28.244Z,7.22
2022-09-28T11:49:17.235Z,5.80
2022-09-28T11:51:48.571Z,2.47
2022-09-28T11:54:29.035Z,1.90
2022-09-28T11:59:33.318Z,6.55
2022-09-28T12:02:03.814Z,8.45
2022-09-28T12:04:53.190Z,2.97
2022-09-28T12:07:53.605Z,4.43
2022-09-28T12:11:03.328Z,5.40
2022-09-28T12:14:00.782Z,7.30
2022-09-28T12:20:01.722Z,5.68
2022-09-28T12:22:39.531Z,3.38
2022-09-28T12:25:14.631Z,9.77
2022-09-28T12:28:24.230Z,5.15
2022-09-28T12:30:54.679Z,8.38
2022-09-28T12:33:22.326Z,6.20
2022-09-28T12:36:05.050Z,1.92
2022-09-28T12:38:54.155Z,4.45
2022-09-28T12:41:58.163Z,4.85
2022-09-28T12:44:41.792Z,4.50
2022-09-28T12:47:35.982Z,5.22
2022-09-28T12:53:09.839Z,2.30
2022-09-28T12:55:56.017Z,2.50
2022-09-28T12:59:08.364Z,3.13
2022-09-28T13:01:47.953Z,4.95
2022-09-28T13:04:35.192Z,1.70
2022-09-28T13:07:18.786Z,4.28
2022-09-28T13:09:55.125Z,5.07
2022-09-28T13:12:49.110Z,4.20
2022-09-28T13:15:27.483Z,3.13
2022-09-28T13:18:02.903Z,2.33
2022-09-28T13:20:45.338Z,7.40
2022-09-28T13:23:23.311Z,2.15
2022-09-28T13:26:11.029Z,2.40
2022-09-28T13:28:39.436Z,3.38
2022-09-28T13:31:08.106Z,3.45
2022-09-28T13:33:39.543Z,7.47
2022-09-28T13:36:33.248Z,7.35
2022-09-28T13:39:01.582Z,4.38
2022-09-28T13:41:33.403Z,3.58
2022-09-28T13:44:13.251Z,2.83
2022-09-28T13:46:48.544Z,4.20
2022-09-28T13:49:21.019Z,6.03
2022-09-28T13:52:13.054Z,1.75
2022-09-28T13:55:09.147Z,7.22
2022-09-28T13:58:01.609Z,5.35
2022-09-28T14:00:30.854Z,5.78
2022-09-28T14:03:26.823Z,6.28
2022-09-28T14:06:00.861Z,4.13
2022-09-28T14:08:28.936Z,4.57
2022-09-28T14:11:17.386Z,3.35
2022-09-28T14:13:44.979Z,5.75
2022-09-28T14:16:21.062Z,4.28
2022-09-28T14:19:18.319Z,2.63
2022-09-28T14:22:16.843Z,3.30
2022-09-28T14:25:04.577Z,4.00
2022-09-28T14:27:57.755Z,1.58
2022-09-28T14:30:33.084Z,4.53
2022-09-28T14:33:02.640Z,4.50
2022-09-28T14:35:40.550Z,4.75
2022-09-28T14:38:39.423Z,2.58
2022-09-28T14:41:13.778Z,3.03
2022-09-28T14:43:44.133Z,5.10
2022-09-28T14:46:11.938Z,4.60
2022-09-28T14:48:54.623Z,3.78
2022-09-28T14:51:25.585Z,2.97
2022-09-28T14:53:54.956Z,6.55
2022-09-28T14:56:22.817Z,3.10
2022-09-28T14:58:56.413Z,2.97
2022-09-28T15:01:25.726Z,2.17
2022-09-28T15:04:01.580Z,3.10
2022-09-28T15:06:45.586Z,4.25
2022-09-28T15:09:36.452Z,3.10
2022-09-28T15:12:06.008Z,7.65
2022-09-28T15:15:03.726Z,6.20
2022-09-28T15:17:42.988Z,2.25
2022-09-28T15:20:30.089Z,4.90
2022-09-28T15:23:06.568Z,6.05
2022-09-28T15:26:14.487Z,4.90
2022-09-28T15:28:57.299Z,2.47
2022-09-28T15:31:30.308Z,4.95
2022-09-28T15:34:29.476Z,2.40
2022-09-28T15:37:32.919Z,5.80
2022-09-28T15:40:16.723Z,1.60
2022-09-28T15:43:38.678Z,5.03
2022-09-28T15:46:25.255Z,2.47
2022-09-28T15:49:06.189Z,4.75
2022-09-28T15:51:50.232Z,3.65
2022-09-28T15:54:26.372Z,2.70
2022-09-28T15:57:05.283Z,4.43
2022-09-28T15:59:57.054Z,4.13
2022-09-28T16:02:33.674Z,4.97
2022-09-28T16:05:35.774Z,4.68
2022-09-28T16:08:05.708Z,7.60
2022-09-28T16:10:38.040Z,2.90
2022-09-28T16:13:30.276Z,2.50
2022-09-28T16:16:08.732Z,4.63
2022-09-28T16:18:45.836Z,2.00
2022-09-28T16:21:29.234Z,9.32
2022-09-28T16:24:28.390Z,3.13
2022-09-28T16:27:48.937Z,6.20
2022-09-28T16:30:25.470Z,4.57
2022-09-28T16:33:25.921Z,3.00
2022-09-28T16:35:53.655Z,8.07
2022-09-28T16:38:21.549Z,7.38
2022-09-28T16:40:53.774Z,6.68
2022-09-28T16:43:27.855Z,3.90
2022-09-28T16:46:17.578Z,2.30
2022-09-28T16:48:50.207Z,4.65
2022-09-28T16:51:20.859Z,2.28
2022-09-28T16:56:37.044Z,4.80
2022-09-28T16:59:05.032Z,2.33
2022-09-28T17:01:33.057Z,3.30
2022-09-28T17:04:00.808Z,4.75
2022-09-28T17:06:28.438Z,4.65
2022-09-28T17:08:56.734Z,8.68
2022-09-28T17:11:25.296Z,5.78
2022-09-28T17:13:59.164Z,4.88
2022-09-28T17:19:22.214Z,3.90
2022-09-28T17:21:51.513Z,4.70
2022-09-28T17:24:19.824Z,4.75
2022-09-28T17:26:50.217Z,4.18
2022-09-28T17:29:18.612Z,7.55
2022-09-28T17:31:47.328Z,4.65
2022-09-28T17:34:25.392Z,3.35
2022-09-28T17:36:53.068Z,3.10
2022-09-28T17:39:20.714Z,3.80
2022-09-28T17:41:48.269Z,4.93
2022-09-28T17:44:18.070Z,4.15
2022-09-28T17:46:48.848Z,6.32
2022-09-28T17:49:17.087Z,5.20
2022-09-28T17:51:44.773Z,9.35
2022-09-28T17:54:19.410Z,2.47
2022-09-28T17:56:46.991Z,7.03
2022-09-28T17:59:17.428Z,5.60
2022-09-28T18:01:45.111Z,4.10
2022-09-28T18:04:27.894Z,6.45
2022-09-28T18:07:01.582Z,8.35
2022-09-28T18:09:29.364Z,4.35
2022-09-28T18:12:05.536Z,6.45
2022-09-28T18:14:33.292Z,5.35
2022-09-28T18:17:01.160Z,6.35
2022-09-28T18:19:32.489Z,4.60
2022-09-28T18:22:01.684Z,8.70
2022-09-28T18:24:30.051Z,5.70
2022-09-28T18:27:11.061Z,7.28
2022-09-28T18:29:39.050Z,7.13
2022-09-28T18:32:07.072Z,8.13
2022-09-28T18:34:40.305Z,9.15
2022-09-28T18:37:08.470Z,5.18
2022-09-28T18:39:36.778Z,6.32
2022-09-28T18:42:05.308Z,10.30
2022-09-28T18:44:34.191Z,6.45
2022-09-28T18:47:02.541Z,7.38
2022-09-28T18:49:34.413Z,7.15
2022-09-28T18:52:02.519Z,11.27
2022-09-28T18:54:30.166Z,8.80
2022-09-28T18:56:58.486Z,11.02
2022-09-28T18:59:29.082Z,7.43
2022-09-28T19:01:57.473Z,8.18
2022-09-28T19:04:25.211Z,8.05
2022-09-28T19:06:54.413Z,6.22
2022-09-28T19:09:26.477Z,12.00
2022-09-28T19:11:54.304Z,13.00
2022-09-28T19:14:22.158Z,12.98
2022-09-28T19:16:49.945Z,11.63
2022-09-28T19:19:20.043Z,12.68
2022-09-28T19:21:48.026Z,11.40
2022-09-28T19:24:18.332Z,15.32
2022-09-28T19:26:46.638Z,15.43
2022-09-28T19:29:14.720Z,14.18
2022-09-28T19:31:43.538Z,14.98
2022-09-28T19:34:14.156Z,13.95
2022-09-28T19:36:42.557Z,13.43
2022-09-28T19:39:15.045Z,17.15
2022-09-28T19:41:47.866Z,17.83
2022-09-28T19:44:27.337Z,18.27
2022-09-28T19:46:57.620Z,14.00
2022-09-28T19:49:27.431Z,18.58
2022-09-28T19:55:01.144Z,17.10
2022-09-28T19:57:32.692Z,13.75
2022-09-28T20:00:03.236Z,12.52
2022-09-28T20:02:34.843Z,15.25
2022-09-28T20:05:02.973Z,14.55
2022-09-28T20:07:33.041Z,18.27
2022-09-28T20:10:00.842Z,15.65
2022-09-28T20:12:28.475Z,11.63
2022-09-28T20:14:56.092Z,10.15
2022-09-28T20:17:25.314Z,10.85
2022-09-28T20:19:53.241Z,16.40
2022-09-28T20:22:21.309Z,17.00
2022-09-28T20:24:49.068Z,11.85
2022-09-28T20:27:23.100Z,12.43
2022-09-28T20:29:53.254Z,14.95
2022-09-28T20:32:21.135Z,12.60
2022-09-28T20:34:49.129Z,15.27
2022-09-28T20:37:17.624Z,11.00
2022-09-28T20:39:45.467Z,13.65
2022-09-28T20:42:15.562Z,14.77
2022-09-28T20:44:43.714Z,14.10
2022-09-28T20:47:11.515Z,13.15
2022-09-28T20:49:39.087Z,13.98
2022-09-28T20:52:06.679Z,11.70
2022-09-28T20:54:34.223Z,22.77
2022-09-28T20:57:01.836Z,12.40
2022-09-28T20:59:29.438Z,12.20
2022-09-28T21:01:57.119Z,14.70
2022-09-28T21:04:24.933Z,14.27
2022-09-28T21:06:53.247Z,14.98
2022-09-28T21:09:20.797Z,15.82
2022-09-28T21:11:48.530Z,11.27
2022-09-28T21:14:16.242Z,12.90
2022-09-28T21:16:43.817Z,12.65
2022-09-28T21:19:11.396Z,17.00
2022-09-28T21:21:38.993Z,14.02
2022-09-28T21:24:06.976Z,11.75
2022-09-28T21:26:35.162Z,10.75
2022-09-28T21:29:05.395Z,11.50
2022-09-28T21:31:37.919Z,17.15
2022-09-28T21:34:06.135Z,17.48
2022-09-28T21:36:34.324Z,15.30
2022-09-28T21:39:01.941Z,15.77
2022-09-28T21:41:29.800Z,15.38
2022-09-28T21:43:57.535Z,19.35
2022-09-28T21:46:26.825Z,15.25
2022-09-28T21:48:54.558Z,14.07
2022-09-28T21:51:25.109Z,12.38
2022-09-28T21:53:54.189Z,18.00
2022-09-28T21:56:23.127Z,13.73
2022-09-28T21:58:51.133Z,14.85
2022-09-28T22:01:20.179Z,15.40
2022-09-28T22:03:50.580Z,11.85
2022-09-28T22:06:20.186Z,12.77
2022-09-28T22:08:49.447Z,17.63
2022-09-28T22:11:20.537Z,13.70
2022-09-28T22:13:54.316Z,11.93
2022-09-28T22:16:25.416Z,16.08
2022-09-28T22:18:53.572Z,14.70
2022-09-28T22:21:27.061Z,12.90
2022-09-28T22:23:58.406Z,13.13
2022-09-28T22:26:27.297Z,14.75
2022-09-28T22:29:04.220Z,16.08
2022-09-28T22:31:51.091Z,13.82
2022-09-28T22:34:19.183Z,11.68
2022-09-28T22:36:49.674Z,14.77
2022-09-28T22:39:17.648Z,10.77
2022-09-28T22:41:45.438Z,17.65
2022-09-28T22:44:13.221Z,14.23
2022-09-28T22:46:41.009Z,16.63
2022-09-28T22:49:12.732Z,14.93
2022-09-28T22:51:40.777Z,14.88
2022-09-28T22:54:08.751Z,11.77
2022-09-28T22:56:36.621Z,13.45
2022-09-28T22:59:04.407Z,13.90
2022-09-28T23:01:32.247Z,14.27
2022-09-28T23:04:00.941Z,12.75
2022-09-28T23:06:43.915Z,10.20
2022-09-28T23:09:11.899Z,18.63
2022-09-28T23:11:39.550Z,13.68
2022-09-28T23:14:11.143Z,13.38
2022-09-28T23:16:39.179Z,15.32
2022-09-28T23:19:06.885Z,12.32
2022-09-28T23:21:34.715Z,14.18
2022-09-28T23:24:02.737Z,12.88
2022-09-28T23:26:33.231Z,11.27
2022-09-28T23:29:01.148Z,10.18
2022-09-28T23:31:31.713Z,13.57
2022-09-28T23:34:05.193Z,10.90
2022-09-28T23:36:33.997Z,13.63
2022-09-28T23:39:02.823Z,10.55
2022-09-28T23:41:30.902Z,13.05
2022-09-28T23:43:58.696Z,14.60
2022-09-28T23:46:26.608Z,14.27
2022-09-28T23:48:54.879Z,13.85
2022-09-28T23:51:22.678Z,13.18
2022-09-28T23:53:50.581Z,11.52
2022-09-28T23:56:18.562Z,9.73
2022-09-28T23:58:46.389Z,13.32
